createdAt,value
2023-05-02T10:44:40.727Z,5.60
2023-05-02T10:47:21.295Z,6.60
2023-05-02T10:50:02.126Z,5.90
2023-05-02T10:52:35.194Z,8.25
2023-05-02T10:55:21.670Z,10.50
2023-05-02T10:58:00.878Z,6.53
2023-05-02T11:00:36.299Z,6.50
2023-05-02T11:03:03.826Z,6.07
2023-05-02T11:05:31.176Z,6.65
2023-05-02T11:08:19.335Z,6.20
2023-05-02T11:10:47.610Z,9.07
2023-05-02T11:13:14.841Z,8.35
2023-05-02T11:15:42.013Z,10.82
2023-05-02T11:18:14.049Z,6.43
2023-05-02T11:20:42.522Z,6.93
2023-05-02T11:23:16.344Z,6.47
2023-05-02T11:25:50.814Z,7.38
2023-05-02T11:28:36.936Z,6.28
2023-05-02T11:31:05.785Z,7.32
2023-05-02T11:33:33.029Z,6.68
2023-05-02T11:36:00.390Z,5.77
2023-05-02T11:38:36.876Z,5.38
2023-05-02T11:41:04.606Z,6.18
2023-05-02T11:43:32.723Z,6.95
2023-05-02T11:46:02.167Z,5.90
2023-05-02T11:48:30.905Z,7.27
2023-05-02T11:51:03.665Z,5.45
2023-05-02T11:53:31.646Z,4.72
2023-05-02T11:56:02.961Z,6.13
2023-05-02T11:58:34.955Z,6.43
2023-05-02T12:01:15.734Z,7.17
2023-05-02T12:03:44.695Z,6.15
2023-05-02T12:06:18.887Z,6.25
2023-05-02T12:08:46.725Z,7.80
2023-05-02T12:11:17.754Z,8.75
2023-05-02T12:13:47.508Z,7.03
2023-05-02T12:16:15.619Z,7.60
2023-05-02T12:18:43.482Z,7.07
2023-05-02T12:21:10.906Z,5.68
2023-05-02T12:23:39.981Z,6.57
2023-05-02T12:26:21.596Z,5.87
2023-05-02T12:28:54.682Z,6.35
2023-05-02T12:31:23.684Z,5.80
2023-05-02T12:33:52.778Z,5.25
2023-05-02T12:36:20.213Z,5.72
2023-05-02T12:38:57.229Z,5.93
2023-05-02T12:41:51.595Z,5.68
2023-05-02T12:44:36.546Z,5.75
2023-05-02T12:47:03.820Z,8.60
2023-05-02T12:49:31.283Z,5.78
2023-05-02T12:51:59.259Z,5.90
2023-05-02T12:54:26.763Z,5.35
2023-05-02T12:56:54.079Z,6.28
2023-05-02T12:59:33.111Z,6.18
2023-05-02T13:02:00.853Z,6.15
2023-05-02T13:04:39.178Z,7.57
2023-05-02T13:07:06.961Z,6.78
2023-05-02T13:09:34.121Z,8.45
2023-05-02T13:12:04.053Z,8.82
2023-05-02T13:14:31.265Z,6.53
2023-05-02T13:16:59.190Z,7.23
2023-05-02T13:19:29.228Z,6.82
2023-05-02T13:21:56.413Z,6.55
2023-05-02T13:24:23.534Z,6.60
2023-05-02T13:26:51.502Z,7.25
2023-05-02T13:29:18.719Z,8.10
2023-05-02T13:31:45.963Z,9.52
2023-05-02T13:34:13.174Z,8.20
2023-05-02T13:36:46.402Z,7.22
2023-05-02T13:39:14.025Z,8.27
2023-05-02T13:41:41.526Z,5.80
2023-05-02T13:44:09.393Z,6.95
2023-05-02T13:46:37.818Z,5.60
2023-05-02T13:49:05.510Z,7.15
2023-05-02T13:51:32.881Z,6.82
2023-05-02T13:54:00.419Z,7.83
2023-05-02T13:56:27.818Z,6.35
2023-05-02T13:58:55.193Z,6.97
2023-05-02T14:01:22.609Z,9.75
2023-05-02T14:03:50.938Z,7.82
2023-05-02T14:06:18.301Z,5.93
2023-05-02T14:08:45.985Z,6.72
2023-05-02T14:11:13.230Z,8.52
2023-05-02T14:13:44.386Z,8.75
2023-05-02T14:16:11.631Z,6.93
2023-05-02T14:18:38.900Z,6.50
2023-05-02T14:21:06.229Z,7.07
2023-05-02T14:23:33.656Z,8.27
2023-05-02T14:26:02.097Z,6.95
2023-05-02T14:28:29.338Z,7.53
2023-05-02T14:30:56.675Z,7.57
2023-05-02T14:33:23.946Z,7.03
2023-05-02T14:35:51.172Z,6.43
2023-05-02T14:38:18.353Z,6.57
2023-05-02T14:40:45.554Z,5.45
2023-05-02T14:43:15.679Z,6.73
2023-05-02T14:45:42.827Z,7.60
2023-05-02T14:48:10.868Z,5.90
2023-05-02T14:50:39.647Z,6.30
2023-05-02T14:53:07.065Z,7.45
2023-05-02T14:55:38.887Z,9.43
2023-05-02T14:58:10.383Z,8.88
2023-05-02T15:00:38.745Z,6.78
2023-05-02T15:03:07.934Z,9.10
2023-05-02T15:05:37.052Z,6.65
2023-05-02T15:08:04.804Z,5.87
2023-05-02T15:10:34.583Z,8.70
2023-05-02T15:13:01.797Z,6.88
2023-05-02T15:15:28.998Z,7.53
2023-05-02T15:17:56.166Z,8.25
2023-05-02T15:20:23.395Z,6.73
2023-05-02T15:22:51.027Z,6.25
2023-05-02T15:25:18.418Z,6.47
2023-05-02T15:27:45.867Z,7.88
2023-05-02T15:30:14.035Z,6.78
2023-05-02T15:32:42.189Z,7.50
2023-05-02T15:35:09.585Z,6.93
2023-05-02T15:37:36.770Z,6.97
2023-05-02T15:40:04.977Z,6.22
2023-05-02T15:42:36.838Z,7.25
2023-05-02T15:45:04.646Z,8.13
2023-05-02T15:47:31.982Z,7.25
2023-05-02T15:49:59.495Z,8.15
2023-05-02T15:52:26.801Z,7.20
2023-05-02T15:54:56.052Z,6.65
2023-05-02T15:57:23.282Z,6.63
2023-05-02T15:59:50.780Z,7.03
2023-05-02T16:02:17.983Z,6.85
2023-05-02T16:04:45.192Z,6.63
2023-05-02T16:07:12.305Z,6.55
2023-05-02T16:09:40.063Z,6.93
2023-05-02T16:12:07.328Z,11.65
2023-05-02T16:14:34.916Z,11.40
2023-05-02T16:17:02.285Z,9.00
2023-05-02T16:19:29.815Z,7.13
2023-05-02T16:21:56.976Z,6.93
2023-05-02T16:24:24.303Z,8.60
2023-05-02T16:26:51.596Z,6.82
2023-05-02T16:29:18.855Z,7.85
2023-05-02T16:31:46.081Z,8.60
2023-05-02T16:34:13.301Z,6.73
2023-05-02T16:36:40.505Z,7.55
2023-05-02T16:39:07.724Z,9.98
2023-05-02T16:41:36.136Z,8.70
2023-05-02T16:44:03.398Z,8.27
2023-05-02T16:46:31.652Z,7.40
2023-05-02T16:48:58.992Z,7.88
2023-05-02T16:51:26.471Z,11.32
2023-05-02T16:53:53.722Z,10.10
2023-05-02T16:56:21.495Z,9.68
2023-05-02T16:58:48.828Z,8.63
2023-05-02T17:01:16.224Z,7.50
2023-05-02T17:03:43.574Z,7.05
2023-05-02T17:06:10.796Z,7.32
2023-05-02T17:08:42.090Z,7.32
2023-05-02T17:11:09.330Z,8.10
2023-05-02T17:13:36.831Z,7.28
2023-05-02T17:16:04.531Z,7.78
2023-05-02T17:18:31.714Z,7.85
2023-05-02T17:20:58.921Z,6.90
2023-05-02T17:23:28.567Z,13.37
2023-05-02T17:25:56.079Z,7.20
2023-05-02T17:28:23.276Z,6.53
2023-05-02T17:30:54.646Z,10.38
2023-05-02T17:33:22.315Z,9.27
2023-05-02T17:35:49.770Z,8.20
2023-05-02T17:38:16.970Z,8.52
2023-05-02T17:40:44.238Z,8.88
2023-05-02T17:43:11.432Z,10.82
2023-05-02T17:45:41.181Z,8.38
2023-05-02T17:48:08.710Z,8.43
2023-05-02T17:50:39.769Z,10.13
2023-05-02T17:53:08.207Z,11.18
2023-05-02T17:55:38.496Z,10.50
2023-05-02T17:58:05.885Z,12.90
2023-05-02T18:00:33.071Z,10.10
2023-05-02T18:03:00.403Z,9.70
2023-05-02T18:05:28.041Z,8.68
2023-05-02T18:07:56.020Z,8.63
2023-05-02T18:10:23.156Z,10.20
2023-05-02T18:12:50.500Z,11.10
2023-05-02T18:15:17.778Z,8.02
2023-05-02T18:17:44.990Z,8.50
2023-05-02T18:20:12.621Z,9.32
2023-05-02T18:22:40.138Z,11.07
2023-05-02T18:25:08.311Z,9.27
2023-05-02T18:27:35.525Z,9.77
2023-05-02T18:30:03.627Z,9.90
2023-05-02T18:32:34.045Z,9.30
2023-05-02T18:35:02.025Z,9.52
2023-05-02T18:37:34.130Z,8.40
2023-05-02T18:40:01.411Z,9.82
2023-05-02T18:42:28.668Z,10.60
2023-05-02T18:44:55.879Z,13.25
2023-05-02T18:47:26.277Z,12.82
2023-05-02T18:49:56.364Z,11.57
2023-05-02T18:52:24.856Z,9.40
2023-05-02T18:54:52.063Z,10.13
2023-05-02T18:57:19.307Z,13.30
2023-05-02T18:59:46.497Z,10.52
2023-05-02T19:02:15.453Z,9.47
2023-05-02T19:04:42.642Z,9.82
2023-05-02T19:07:09.828Z,8.80
2023-05-02T19:09:37.032Z,8.52
2023-05-02T19:12:04.365Z,10.77
2023-05-02T19:14:33.249Z,10.63
2023-05-02T19:17:00.444Z,8.55
2023-05-02T19:19:27.652Z,11.90
2023-05-02T19:21:54.898Z,9.27
2023-05-02T19:24:22.047Z,13.63
2023-05-02T19:26:49.181Z,9.43
2023-05-02T19:29:16.421Z,9.93
2023-05-02T19:31:44.885Z,10.35
2023-05-02T19:34:12.205Z,10.90
2023-05-02T19:36:39.376Z,11.40
2023-05-02T19:39:06.647Z,12.00
2023-05-02T19:41:34.479Z,10.10
2023-05-02T19:44:01.694Z,10.05
2023-05-02T19:46:33.252Z,10.95
2023-05-02T19:49:00.539Z,10.57
2023-05-02T19:51:28.220Z,12.60
2023-05-02T19:53:58.518Z,11.30
2023-05-02T19:56:29.023Z,11.18
2023-05-02T19:58:59.484Z,10.38
2023-05-02T20:01:29.214Z,11.23
2023-05-02T20:03:56.750Z,9.70
2023-05-02T20:06:24.508Z,11.77
2023-05-02T20:08:52.866Z,11.57
2023-05-02T20:11:20.161Z,10.30
2023-05-02T20:13:47.383Z,11.20
2023-05-02T20:16:15.005Z,10.20
2023-05-02T20:18:42.332Z,12.52
2023-05-02T20:21:09.491Z,12.68
2023-05-02T20:23:36.641Z,12.80
2023-05-02T20:26:03.823Z,13.07
2023-05-02T20:28:31.120Z,12.47
2023-05-02T20:30:58.286Z,12.05
2023-05-02T20:33:33.561Z,12.15
2023-05-02T20:36:08.808Z,13.18
2023-05-02T20:38:36.080Z,16.80
2023-05-02T20:41:11.552Z,13.43
2023-05-02T20:43:40.268Z,12.10
2023-05-02T20:46:16.589Z,14.73
2023-05-02T20:48:43.973Z,12.10
2023-05-02T20:51:11.427Z,13.13
2023-05-02T20:53:39.113Z,13.77
2023-05-02T20:56:07.165Z,14.18
2023-05-02T20:58:34.388Z,12.00
2023-05-02T21:01:01.670Z,12.77
2023-05-02T21:03:28.993Z,12.38
2023-05-02T21:05:59.074Z,13.63
2023-05-02T21:08:26.288Z,12.93
2023-05-02T21:10:53.895Z,12.98
2023-05-02T21:13:21.898Z,12.57
2023-05-02T21:15:49.176Z,13.98
2023-05-02T21:18:16.525Z,12.30
2023-05-02T21:20:43.766Z,13.82
2023-05-02T21:23:11.447Z,15.75
2023-05-02T21:25:38.703Z,15.68
2023-05-02T21:28:06.206Z,14.40
2023-05-02T21:30:33.477Z,12.53
2023-05-02T21:33:00.740Z,13.80
2023-05-02T21:35:28.810Z,12.85
2023-05-02T21:37:56.110Z,12.68
2023-05-02T21:40:23.231Z,16.65
2023-05-02T21:42:50.478Z,15.40
2023-05-02T21:45:17.760Z,13.50
2023-05-02T21:47:45.121Z,16.70
2023-05-02T21:50:12.389Z,15.98
2023-05-02T21:52:39.791Z,14.60
2023-05-02T21:55:07.469Z,15.53
2023-05-02T21:57:34.747Z,14.07
2023-05-02T22:00:02.233Z,17.65
2023-05-02T22:02:29.687Z,14.82
2023-05-02T22:04:57.802Z,13.95
2023-05-02T22:07:25.131Z,13.63
2023-05-02T22:09:52.471Z,14.20
2023-05-02T22:12:24.300Z,16.33
2023-05-02T22:14:51.570Z,16.10
2023-05-02T22:17:18.681Z,15.20
2023-05-02T22:19:50.335Z,15.07
2023-05-02T22:22:17.987Z,15.30
2023-05-02T22:24:45.183Z,15.23
2023-05-02T22:27:12.422Z,14.68
2023-05-02T22:29:39.526Z,16.45
2023-05-02T22:32:06.812Z,15.50
2023-05-02T22:34:34.144Z,25.33
2023-05-02T22:37:01.400Z,18.38
2023-05-02T22:39:29.002Z,14.35
2023-05-02T22:41:57.162Z,17.20
2023-05-02T22:44:24.338Z,14.10
2023-05-02T22:46:51.812Z,16.00
2023-05-02T22:49:19.813Z,17.40
2023-05-02T22:51:47.245Z,14.23
2023-05-02T22:54:15.205Z,15.35
2023-05-02T22:56:42.410Z,14.80
2023-05-02T22:59:09.971Z,13.85
2023-05-02T23:01:37.254Z,14.50
2023-05-02T23:04:04.607Z,15.82
2023-05-02T23:06:31.860Z,16.80
2023-05-02T23:08:59.037Z,16.27
2023-05-02T23:11:26.384Z,21.48
2023-05-02T23:13:53.554Z,17.75
2023-05-02T23:16:20.757Z,13.93
2023-05-02T23:18:47.940Z,15.18
2023-05-02T23:21:16.159Z,15.70
2023-05-02T23:23:43.517Z,15.38
2023-05-02T23:26:10.963Z,15.05
2023-05-02T23:28:39.108Z,15.75
2023-05-02T23:31:07.061Z,16.25
2023-05-02T23:33:35.529Z,16.80
2023-05-02T23:36:02.939Z,14.10
2023-05-02T23:38:30.126Z,16.38
2023-05-02T23:40:57.409Z,16.75
2023-05-02T23:43:24.580Z,15.27
2023-05-02T23:45:51.769Z,16.20
2023-05-02T23:48:20.318Z,15.25
2023-05-02T23:50:47.631Z,15.93
2023-05-02T23:53:14.810Z,16.25
2023-05-02T23:55:42.076Z,15.90
2023-05-02T23:58:09.519Z,16.90
